Mendon - 24 Hour Table
Date & TimeSolar
Radiation
(W/m²)
Wind
Speed
(mph)
Wind
Direction
(degrees)
Air
Temperature
(°F)
Relative
Humidity
(%)
Precipitation
(inches)
2019/10/19 12:00 150 2.7 153 51.5 36 0.00
2019/10/19 11:00 133 2.0 160 48.7 37 0.00
2019/10/19 10:00 309 0.4 354 44.8 64 0.00
2019/10/19 09:00 98 0.1 170 38.1 80 0.00
2019/10/19 08:00 40 0.0 246 33.1 88 0.00
2019/10/19 07:00 4 0.0 295 30.9 96 0.00
2019/10/19 06:00 1 0.0 276 32.8 93 0.00
2019/10/19 05:00 2 0.0 266 35.1 90 0.00
2019/10/19 04:00 2 0.0 216 37.3 85 0.00
2019/10/19 03:00 2 0.0 274 37.1 90 0.00
2019/10/19 02:00 2 0.0 237 37.2 86 0.00
2019/10/19 01:00 2 0.0 205 36.2 86 0.00
2019/10/19 00:00 2 0.2 231 36.8 84 0.00
2019/10/18 23:00 2 0.0 257 37.2 80 0.00
2019/10/18 22:00 2 0.0 271 36.5 84 0.00
2019/10/18 21:00 2 0.0 286 36.1 78 0.00
2019/10/18 20:00 2 0.0 270 36.9 82 0.00
2019/10/18 19:00 2 0.0 264 41.5 76 0.00
2019/10/18 18:00 14 0.0 216 47.3 63 0.00
2019/10/18 17:00 60 0.5 155 49.0 53 0.00
2019/10/18 16:00 95 0.9 183 49.1 50 0.00
2019/10/18 15:00 131 0.5 209 50.3 49 0.00
2019/10/18 14:00 469 1.3 183 52.3 38 0.00
2019/10/18 13:00 419 1.6 247 51.3 41 0.00